Time;durP1;ratioP1;P1;durP2;ratioP2;P2;SDS_P1;SDS_P2;PMS_P1;PMS_P2;Temp;Humidity;BMP_temperature;BMP_pressure;BME280_temperature;BME280_humidity;BME280_pressure;Samples;Min_cycle;Max_cycle;Signal;HPM_P1;HPM_P2
2022/11/14 00:00:27;;;;;;;34.90;20.65;;;;;;;6.60;100.00;101942.63;5025649;28;20060;-77
2022/11/14 00:03:14;;;;;;;33.72;20.17;;;;;;;6.62;100.00;101947.06;5012661;28;20049;-77
2022/11/14 00:06:05;;;;;;;32.63;19.83;;;;;;;6.66;100.00;101939.34;4992150;28;20399;-77
2022/11/14 00:08:52;;;;;;;35.00;21.25;;;;;;;6.66;100.00;101941.97;5021330;28;20038;-77
2022/11/14 00:11:41;;;;;;;31.33;21.20;;;;;;;6.64;100.00;101940.16;5025390;28;20042;-76
2022/11/14 00:14:28;;;;;;;30.33;20.45;;;;;;;6.64;100.00;101942.78;5025409;28;20048;-76
2022/11/14 00:17:15;;;;;;;33.65;21.38;;;;;;;6.66;100.00;101931.47;5014123;28;20622;-76
2022/11/14 00:20:04;;;;;;;38.78;23.20;;;;;;;6.63;100.00;101921.75;4997026;28;20391;-78
2022/11/14 00:22:51;;;;;;;32.85;22.27;;;;;;;6.65;100.00;101925.31;5014289;28;20407;-77
2022/11/14 00:25:37;;;;;;;42.47;23.40;;;;;;;6.68;100.00;101916.72;5009801;28;20049;-77
2022/11/14 00:28:24;;;;;;;38.10;22.95;;;;;;;6.71;100.00;101922.03;5018168;28;20284;-77
2022/11/14 00:31:12;;;;;;;32.72;23.45;;;;;;;6.72;100.00;101913.34;5008613;28;20056;-77
2022/11/14 00:33:59;;;;;;;41.95;25.08;;;;;;;6.72;100.00;101916.84;5019092;28;20498;-77
2022/11/14 00:36:46;;;;;;;38.45;24.85;;;;;;;6.73;100.00;101905.56;4995395;28;20046;-77
2022/11/14 00:39:32;;;;;;;38.40;25.50;;;;;;;6.72;100.00;101901.16;5025848;28;20041;-76
2022/11/14 00:42:19;;;;;;;43.55;26.27;;;;;;;6.72;100.00;101900.25;5022298;28;20231;-76
2022/11/14 00:45:06;;;;;;;39.95;26.48;;;;;;;6.75;100.00;101905.63;5024002;28;20037;-76
2022/11/14 00:47:53;;;;;;;37.28;25.10;;;;;;;6.74;100.00;101899.47;5014556;28;20050;-76
2022/11/14 00:50:41;;;;;;;43.42;27.25;;;;;;;6.73;100.00;101886.31;5009717;28;20041;-77
2022/11/14 00:53:28;;;;;;;40.42;25.35;;;;;;;6.74;100.00;101875.88;4998629;28;20049;-77
2022/11/14 00:56:15;;;;;;;42.10;26.52;;;;;;;6.73;100.00;101883.69;5027758;28;20677;-78
2022/11/14 00:59:02;;;;;;;44.92;27.05;;;;;;;6.71;100.00;101877.50;5023118;28;20407;-76
2022/11/14 01:01:49;;;;;;;42.67;26.92;;;;;;;6.68;100.00;101869.56;5018519;28;20395;-77
2022/11/14 01:04:43;;;;;;;44.80;29.15;;;;;;;6.66;100.00;101855.53;5011546;28;20072;-77
2022/11/14 01:07:32;;;;;;;54.20;32.00;;;;;;;6.64;100.00;101851.09;4988031;28;20049;-78
2022/11/14 01:10:20;;;;;;;41.35;27.65;;;;;;;6.62;100.00;101847.53;5029274;28;20258;-77
2022/11/14 01:13:09;;;;;;;44.13;27.42;;;;;;;6.59;100.00;101852.66;5020989;28;20038;-77
2022/11/14 01:16:00;;;;;;;46.33;29.92;;;;;;;6.58;100.00;101850.91;5008924;28;20053;-78
2022/11/14 01:18:48;;;;;;;45.85;30.08;;;;;;;6.56;100.00;101844.72;5018073;28;20046;-77
2022/11/14 01:21:35;;;;;;;44.35;29.88;;;;;;;6.56;100.00;101841.19;5015769;28;20060;-77
2022/11/14 01:24:21;;;;;;;45.83;28.27;;;;;;;6.55;100.00;101836.78;4996600;28;20147;-78
2022/11/14 01:27:08;;;;;;;49.35;29.95;;;;;;;6.55;100.00;101844.66;5024477;28;20563;-78
2022/11/14 01:29:55;;;;;;;47.47;29.30;;;;;;;6.54;100.00;101837.63;5024032;28;20042;-78
2022/11/14 01:32:42;;;;;;;47.92;30.02;;;;;;;6.55;100.00;101828.94;5024954;28;20041;-78
2022/11/14 01:35:31;;;;;;;47.00;29.08;;;;;;;6.54;100.00;101822.81;5010723;28;20056;-77
2022/11/14 01:38:17;;;;;;;43.63;27.65;;;;;;;6.55;100.00;101823.69;4999540;28;20060;-77
2022/11/14 01:41:05;;;;;;;45.47;27.65;;;;;;;6.56;100.00;101828.09;5021830;28;20053;-78
2022/11/14 01:43:52;;;;;;;43.85;28.48;;;;;;;6.58;100.00;101824.72;5027909;28;20037;-77
2022/11/14 01:46:42;;;;;;;45.50;28.88;;;;;;;6.58;100.00;101809.00;5035895;28;20053;-77
2022/11/14 01:49:34;;;;;;;;;;;;;;;6.59;100.00;101802.91;5020329;28;20053;-77
2022/11/14 01:52:29;;;;;;;;;;;;;;;6.58;100.00;101798.53;5025937;28;20114;-76
2022/11/14 01:55:16;;;;;;;44.35;26.98;;;;;;;6.58;100.00;101782.81;4987252;28;20345;-76
2022/11/14 01:58:02;;;;;;;50.92;28.85;;;;;;;6.58;100.00;101780.19;5026120;28;20525;-77
2022/11/14 02:00:51;;;;;;;47.55;28.45;;;;;;;6.58;100.00;101774.94;4998780;28;20050;-76
2022/11/14 02:03:42;;;;;;;44.03;26.50;;;;;;;6.58;100.00;101767.09;5036692;28;20057;-76
2022/11/14 02:06:31;;;;;;;47.80;30.17;;;;;;;6.60;100.00;101768.03;5006076;28;20050;-77
2022/11/14 02:09:18;;;;;;;49.47;29.05;;;;;;;6.61;100.00;101747.97;4990394;28;20068;-76
2022/11/14 02:12:08;;;;;;;52.53;30.98;;;;;;;6.60;100.00;101752.31;5026816;28;20048;-77
2022/11/14 02:14:58;;;;;;;54.38;30.48;;;;;;;6.61;100.00;101747.97;5011788;28;20495;-77
2022/11/14 02:17:44;;;;;;;45.90;29.85;;;;;;;6.60;100.00;101749.69;5019306;28;20038;-76
2022/11/14 02:20:41;;;;;;;44.63;29.75;;;;;;;6.60;100.00;101747.09;5041073;28;20045;-77
2022/11/14 02:23:30;;;;;;;48.63;28.48;;;;;;;6.59;100.00;101745.28;5022677;28;20048;-77
2022/11/14 02:26:18;;;;;;;46.85;28.45;;;;;;;6.59;100.00;101741.78;4977520;28;20251;-77
2022/11/14 02:29:06;;;;;;;54.45;31.67;;;;;;;6.59;100.00;101733.94;5023036;28;20049;-77
2022/11/14 02:31:53;;;;;;;50.50;30.63;;;;;;;6.59;100.00;101732.19;5022356;28;20042;-77
2022/11/14 02:34:40;;;;;;;47.25;29.23;;;;;;;6.58;100.00;101730.44;5007454;28;20072;-77
2022/11/14 02:37:26;;;;;;;48.03;29.45;;;;;;;6.57;100.00;101739.09;5013001;28;20687;-77
2022/11/14 02:40:14;;;;;;;45.28;27.58;;;;;;;6.56;100.00;101737.34;4988723;28;20057;-77
2022/11/14 02:43:01;;;;;;;50.45;29.67;;;;;;;6.56;100.00;101737.34;5027789;28;20033;-78
2022/11/14 02:45:48;;;;;;;49.03;31.55;;;;;;;6.55;100.00;101727.69;5025899;28;20046;-77
2022/11/14 02:48:35;;;;;;;46.28;28.38;;;;;;;6.55;100.00;101735.53;5024319;28;20113;-77
2022/11/14 02:51:22;;;;;;;50.05;29.90;;;;;;;6.56;100.00;101732.09;5022145;28;20045;-77
2022/11/14 02:54:09;;;;;;;48.28;31.33;;;;;;;6.57;100.00;101727.75;5012762;28;20041;-77
2022/11/14 02:56:56;;;;;;;49.42;31.05;;;;;;;6.58;100.00;101727.81;5002696;28;20051;-77
2022/11/14 02:59:43;;;;;;;52.53;30.38;;;;;;;6.59;100.00;101716.47;5023607;28;20509;-77
2022/11/14 03:02:33;;;;;;;51.85;29.10;;;;;;;6.61;100.00;101713.91;5019016;28;20053;-77
2022/11/14 03:05:21;;;;;;;54.80;31.48;;;;;;;6.60;100.00;101710.41;5005523;28;20044;-77
2022/11/14 03:08:08;;;;;;;53.38;33.25;;;;;;;6.61;100.00;101706.94;5015670;28;20402;-77
2022/11/14 03:10:55;;;;;;;52.95;31.25;;;;;;;6.60;100.00;101704.28;5020602;28;20049;-77
2022/11/14 03:13:42;;;;;;;51.03;32.63;;;;;;;6.60;100.00;101694.69;5013043;28;20395;-77
2022/11/14 03:16:29;;;;;;;52.28;33.35;;;;;;;6.62;100.00;101693.03;5026200;28;20052;-77
2022/11/14 03:19:16;;;;;;;56.85;33.55;;;;;;;6.60;100.00;101691.19;5015800;28;20684;-77
2022/11/14 03:22:04;;;;;;;51.67;29.85;;;;;;;6.61;100.00;101685.97;5036341;28;20399;-77
2022/11/14 03:24:51;;;;;;;47.83;32.00;;;;;;;6.61;100.00;101691.22;5013255;28;20041;-77
2022/11/14 03:27:38;;;;;;;48.47;31.25;;;;;;;6.63;100.00;101696.53;4992556;28;20042;-77
2022/11/14 03:30:25;;;;;;;46.10;30.80;;;;;;;6.63;100.00;101696.53;5003208;28;20054;-77
2022/11/14 03:33:12;;;;;;;47.08;29.98;;;;;;;6.63;100.00;101686.03;5008143;28;20257;-77
2022/11/14 03:36:00;;;;;;;48.10;30.90;;;;;;;6.63;100.00;101686.97;5020572;28;20041;-77
2022/11/14 03:38:50;;;;;;;48.33;31.00;;;;;;;6.66;100.00;101687.91;5012749;28;20065;-77
2022/11/14 03:41:37;;;;;;;50.63;30.80;;;;;;;6.65;100.00;101684.34;5014672;28;20046;-77
2022/11/14 03:44:24;;;;;;;46.67;29.77;;;;;;;6.64;100.00;101688.72;5009344;28;20407;-77
2022/11/14 03:47:10;;;;;;;48.83;28.88;;;;;;;6.62;100.00;101676.44;5015438;28;20052;-77
2022/11/14 03:49:58;;;;;;;50.35;30.30;;;;;;;6.61;100.00;101678.13;5019578;28;20029;-77
2022/11/14 03:52:48;;;;;;;47.97;29.27;;;;;;;6.61;100.00;101685.09;5018757;28;20038;-77
2022/11/14 03:55:35;;;;;;;42.30;28.80;;;;;;;6.57;100.00;101681.50;5015367;28;20499;-77
2022/11/14 03:58:21;;;;;;;44.47;29.15;;;;;;;6.55;100.00;101672.69;5005511;28;20996;-77
2022/11/14 04:01:08;;;;;;;39.80;28.38;;;;;;;6.53;100.00;101681.34;5009447;28;20577;-77
2022/11/14 04:03:56;;;;;;;43.65;29.52;;;;;;;6.53;100.00;101670.88;5023755;28;20445;-77
2022/11/14 04:06:44;;;;;;;42.33;28.35;;;;;;;6.53;100.00;101663.03;5020089;28;20060;-77
2022/11/14 04:09:32;;;;;;;43.33;27.65;;;;;;;6.52;100.00;101662.16;5008340;28;20050;-76
2022/11/14 04:12:18;;;;;;;41.10;27.95;;;;;;;6.53;100.00;101668.25;5003449;28;20037;-76
2022/11/14 04:15:06;;;;;;;45.35;28.02;;;;;;;6.48;100.00;101661.97;4978642;28;20381;-76
2022/11/14 04:17:53;;;;;;;45.17;28.67;;;;;;;6.44;100.00;101661.88;5025574;28;20049;-76
2022/11/14 04:20:40;;;;;;;46.72;30.25;;;;;;;6.42;100.00;101657.44;5023596;28;20061;-77
2022/11/14 04:23:27;;;;;;;41.25;28.42;;;;;;;6.40;100.00;101659.09;5015252;28;20034;-76
2022/11/14 04:26:14;;;;;;;43.85;29.38;;;;;;;6.38;100.00;101656.44;5015171;28;20907;-77
2022/11/14 04:29:01;;;;;;;40.15;28.50;;;;;;;6.38;100.00;101652.94;4979669;28;20479;-75
2022/11/14 04:31:48;;;;;;;41.72;28.60;;;;;;;6.38;100.00;101648.56;5018484;28;20403;-76
2022/11/14 04:34:38;;;;;;;32.05;21.73;;;;;;;6.36;100.00;101647.63;5024970;28;20412;-76
2022/11/14 04:37:25;;;;;;;44.65;29.35;;;;;;;6.36;100.00;101644.13;5016682;28;20255;-77
2022/11/14 04:40:13;;;;;;;40.97;28.75;;;;;;;6.33;100.00;101636.19;5006182;28;20045;-78
2022/11/14 04:43:00;;;;;;;46.28;28.02;;;;;;;6.29;100.00;101642.16;5007907;28;20042;-76
2022/11/14 04:45:47;;;;;;;43.58;28.17;;;;;;;6.25;100.00;101641.16;4993520;28;20048;-76
2022/11/14 04:48:34;;;;;;;40.88;27.40;;;;;;;6.23;100.00;101648.94;5020557;28;20054;-77
2022/11/14 04:51:20;;;;;;;45.08;29.33;;;;;;;6.21;100.00;101639.28;5032459;28;20258;-78
2022/11/14 04:54:08;;;;;;;43.67;28.48;;;;;;;6.19;100.00;101627.88;5010923;28;20042;-78
2022/11/14 04:56:54;;;;;;;46.22;29.38;;;;;;;6.14;100.00;101627.69;5020643;28;20052;-78
2022/11/14 04:59:41;;;;;;;43.08;26.55;;;;;;;6.14;100.00;101635.56;5018627;28;20049;-77
2022/11/14 05:02:31;;;;;;;44.25;28.75;;;;;;;6.11;100.00;101635.47;4990114;28;20045;-76
2022/11/14 05:05:17;;;;;;;42.95;28.73;;;;;;;6.11;100.00;101632.84;5007414;28;20138;-77
2022/11/14 05:08:05;;;;;;;44.25;29.70;;;;;;;6.12;100.00;101623.25;5008481;28;20064;-76
2022/11/14 05:10:52;;;;;;;42.35;26.73;;;;;;;6.08;100.00;101627.50;5017315;28;20042;-77
2022/11/14 05:13:39;;;;;;;39.50;27.60;;;;;;;6.05;100.00;101627.41;5014727;28;20033;-77
2022/11/14 05:16:26;;;;;;;46.22;28.38;;;;;;;6.04;100.00;101617.78;4978838;28;20069;-77
2022/11/14 05:19:13;;;;;;;46.28;30.17;;;;;;;6.02;100.00;101612.47;5020668;28;20333;-77
2022/11/14 05:22:00;;;;;;;49.63;29.77;;;;;;;6.04;100.00;101612.53;5017446;28;20046;-77
2022/11/14 05:24:47;;;;;;;45.45;29.20;;;;;;;6.05;100.00;101609.97;4994658;28;20030;-76
2022/11/14 05:27:34;;;;;;;48.80;31.30;;;;;;;6.07;100.00;101609.13;5018402;28;20048;-76
2022/11/14 05:30:21;;;;;;;47.75;30.50;;;;;;;6.08;100.00;101608.31;5011471;28;20255;-77
2022/11/14 05:33:08;;;;;;;47.90;30.10;;;;;;;6.04;100.00;101595.09;4992337;28;20084;-77
2022/11/14 05:35:55;;;;;;;49.45;30.02;;;;;;;6.03;100.00;101592.44;5017117;28;20045;-77
2022/11/14 05:38:43;;;;;;;50.13;33.42;;;;;;;6.02;100.00;101590.66;5004654;28;20499;-77
2022/11/14 05:41:30;;;;;;;48.10;32.20;;;;;;;6.01;100.00;101592.41;5013945;28;20050;-76
2022/11/14 05:44:17;;;;;;;48.47;32.22;;;;;;;5.99;100.00;101582.69;5024962;28;20312;-76
2022/11/14 05:47:04;;;;;;;51.10;33.28;;;;;;;5.99;100.00;101591.47;4996528;28;20037;-77
2022/11/14 05:49:51;;;;;;;48.78;31.63;;;;;;;5.96;100.00;101582.63;5024200;28;20041;-77
2022/11/14 05:52:37;;;;;;;49.60;32.63;;;;;;;5.94;100.00;101584.28;5033849;28;20049;-76
2022/11/14 05:55:24;;;;;;;51.03;34.70;;;;;;;5.94;100.00;101581.66;5011020;28;20519;-77
2022/11/14 05:58:11;;;;;;;56.63;33.50;;;;;;;5.93;100.00;101595.56;5013382;28;20326;-76
2022/11/14 06:01:09;;;;;;;54.97;33.25;;;;;;;5.89;100.00;101589.31;5020672;28;20046;-77
2022/11/14 06:04:05;;;;;;;48.95;30.92;;;;;;;5.90;100.00;101590.19;4991180;28;20356;-77
2022/11/14 06:06:52;;;;;;;46.05;30.52;;;;;;;5.89;100.00;101593.69;5016180;28;20045;-77
2022/11/14 06:09:39;;;;;;;51.28;29.67;;;;;;;5.88;100.00;101591.88;5010472;28;20041;-77
2022/11/14 06:12:25;;;;;;;50.72;31.15;;;;;;;5.88;100.00;101598.03;5024102;28;20042;-76
2022/11/14 06:15:12;;;;;;;49.65;31.30;;;;;;;5.90;100.00;101590.19;4997994;28;20553;-76
2022/11/14 06:17:59;;;;;;;50.35;30.80;;;;;;;5.88;100.00;101584.94;4988595;28;20495;-78
2022/11/14 06:20:45;;;;;;;50.97;30.95;;;;;;;5.85;100.00;101583.09;5010489;28;20041;-76
2022/11/14 06:23:32;;;;;;;47.55;30.63;;;;;;;5.86;100.00;101581.41;5015907;28;20053;-77
2022/11/14 06:26:30;;;;;;;51.38;32.03;;;;;;;5.86;100.00;101584.88;5008811;28;20049;-79
2022/11/14 06:29:18;;;;;;;48.90;29.88;;;;;;;5.85;100.00;101576.97;5014973;28;20162;-79
2022/11/14 06:32:06;;;;;;;52.75;31.85;;;;;;;5.84;100.00;101588.28;4994662;28;20049;-78
2022/11/14 06:34:53;;;;;;;46.17;29.27;;;;;;;5.83;100.00;101579.53;5010004;28;20049;-79
2022/11/14 06:37:39;;;;;;;49.78;28.67;;;;;;;5.82;100.00;101587.31;5017764;28;20045;-79
2022/11/14 06:40:27;;;;;;;47.80;29.00;;;;;;;5.84;100.00;101585.66;5016057;28;20049;-78
2022/11/14 06:43:14;;;;;;;48.30;29.27;;;;;;;5.80;100.00;101586.38;5012317;28;20033;-78
2022/11/14 06:46:02;;;;;;;46.35;27.85;;;;;;;5.79;100.00;101585.50;5018878;28;20045;-77
2022/11/14 06:48:51;;;;;;;45.75;28.40;;;;;;;5.76;100.00;101590.63;5002604;28;20045;-77
2022/11/14 06:51:38;;;;;;;44.88;25.92;;;;;;;5.72;100.00;101593.97;5027417;28;20565;-77
2022/11/14 06:54:25;;;;;;;49.40;29.15;;;;;;;5.72;100.00;101587.84;5023078;28;20435;-78
2022/11/14 06:57:14;;;;;;;48.63;27.95;;;;;;;5.66;100.00;101597.25;5010604;28;20407;-79
2022/11/14 07:00:02;;;;;;;46.25;27.45;;;;;;;5.63;100.00;101591.03;5001720;28;20045;-77
2022/11/14 07:02:50;;;;;;;50.38;28.95;;;;;;;5.62;100.00;101590.16;5003929;28;20062;-78
2022/11/14 07:05:37;;;;;;;46.28;27.42;;;;;;;5.56;100.00;101603.00;5002435;28;20056;-77
2022/11/14 07:08:24;;;;;;;51.47;28.92;;;;;;;5.55;100.00;101598.59;5028664;28;20244;-77
2022/11/14 07:11:24;;;;;;;45.92;28.75;;;;;;;5.53;100.00;101597.66;5027753;28;20061;-78
2022/11/14 07:14:12;;;;;;;51.72;28.38;;;;;;;5.54;100.00;101588.09;5015597;28;20038;-79
2022/11/14 07:16:59;;;;;;;49.60;28.75;;;;;;;5.56;100.00;101592.56;5006928;28;20053;-77
2022/11/14 07:19:46;;;;;;;51.15;27.95;;;;;;;5.56;100.00;101591.69;4978062;28;20057;-78
2022/11/14 07:22:33;;;;;;;48.92;27.95;;;;;;;5.56;100.00;101592.56;5022948;28;20061;-78
2022/11/14 07:25:21;;;;;;;52.78;28.92;;;;;;;5.55;100.00;101588.16;5013118;28;20033;-78
2022/11/14 07:28:08;;;;;;;47.15;28.17;;;;;;;5.54;100.00;101595.94;5030512;28;20164;-77
2022/11/14 07:30:56;;;;;;;49.63;29.75;;;;;;;5.55;100.00;101590.75;5018409;28;20240;-77
2022/11/14 07:33:43;;;;;;;52.38;29.65;;;;;;;5.58;100.00;101597.84;5021383;28;20495;-78
2022/11/14 07:36:30;;;;;;;47.55;27.52;;;;;;;5.59;100.00;101581.31;4987740;28;20038;-77
2022/11/14 07:39:17;;;;;;;50.85;28.83;;;;;;;5.58;100.00;101588.28;5008485;28;20499;-77
2022/11/14 07:42:04;;;;;;;49.38;28.88;;;;;;;5.59;100.00;101586.53;5017314;28;20225;-76
2022/11/14 07:44:51;;;;;;;49.03;27.80;;;;;;;5.61;100.00;101587.47;5008810;28;20038;-77
2022/11/14 07:47:40;;;;;;;53.17;29.52;;;;;;;5.61;100.00;101588.38;5014057;28;20099;-78
2022/11/14 07:50:29;;;;;;;48.83;27.83;;;;;;;5.61;100.00;101601.47;4979001;28;20051;-77
2022/11/14 07:53:23;;;;;;;51.65;30.23;;;;;;;5.63;100.00;101591.03;5014303;28;20061;-77
2022/11/14 07:56:13;;;;;;;51.10;30.10;;;;;;;5.65;100.00;101590.28;5001185;28;20042;-78
2022/11/14 07:59:00;;;;;;;48.90;28.55;;;;;;;5.66;100.00;101594.66;5008496;28;20044;-78
2022/11/14 08:01:47;;;;;;;49.63;28.05;;;;;;;5.70;100.00;101592.16;5019314;28;20052;-77
2022/11/14 08:04:34;;;;;;;43.83;28.00;;;;;;;5.70;100.00;101585.19;5021112;28;20321;-77
2022/11/14 08:07:21;;;;;;;49.28;29.70;;;;;;;5.72;100.00;101593.09;4971177;28;20045;-78
2022/11/14 08:10:10;;;;;;;46.22;28.23;;;;;;;5.73;100.00;101585.31;5006769;28;20045;-78
2022/11/14 08:12:59;;;;;;;49.55;29.83;;;;;;;5.75;100.00;101591.47;5013332;28;20045;-78
2022/11/14 08:16:09;;;;;;;49.53;29.67;;;;;;;5.79;100.00;101572.44;5009492;28;20041;-78
2022/11/14 08:19:00;;;;;;;44.63;28.00;;;;;;;5.78;100.00;101586.31;5006686;28;20049;-78
2022/11/14 08:21:46;;;;;;;47.03;28.17;;;;;;;5.77;100.00;101589.81;4977901;28;20042;-77
2022/11/14 08:24:34;;;;;;;42.03;27.20;;;;;;;5.77;100.00;101592.41;5031550;28;20057;-78
2022/11/14 08:27:21;;;;;;;42.33;27.38;;;;;;;5.76;100.00;101579.28;5013874;28;20034;-78
2022/11/14 08:30:08;;;;;;;49.97;28.30;;;;;;;5.77;100.00;101562.75;5004515;28;20054;-81
2022/11/14 08:32:55;;;;;;;47.13;29.98;;;;;;;5.80;100.00;101570.69;5026835;28;20038;-78
2022/11/14 08:35:42;;;;;;;48.53;29.23;;;;;;;5.83;100.00;101560.34;5017012;28;20050;-77
2022/11/14 08:38:30;;;;;;;46.35;28.58;;;;;;;5.85;100.00;101567.41;4992824;28;20669;-77
2022/11/14 08:41:19;;;;;;;43.90;27.23;;;;;;;5.91;100.00;101565.84;5014499;28;20787;-77
2022/11/14 08:44:06;;;;;;;44.28;28.13;;;;;;;5.91;100.00;101565.84;5024483;28;20034;-78
2022/11/14 08:46:53;;;;;;;46.47;28.27;;;;;;;5.96;100.00;101565.19;5011288;28;20483;-78
2022/11/14 08:49:42;;;;;;;43.35;27.83;;;;;;;6.00;100.00;101558.34;5016035;28;20037;-78
2022/11/14 08:52:30;;;;;;;43.70;27.98;;;;;;;6.05;100.00;101551.53;4982311;28;20057;-78
2022/11/14 08:55:19;;;;;;;43.28;27.45;;;;;;;6.05;100.00;101541.06;5012833;28;20042;-79
2022/11/14 08:58:06;;;;;;;46.22;27.88;;;;;;;6.06;100.00;101558.53;4995195;28;20049;-79
2022/11/14 09:00:53;;;;;;;42.10;27.73;;;;;;;6.10;100.00;101546.44;5018896;28;20061;-77
2022/11/14 09:03:40;;;;;;;51.13;31.77;;;;;;;6.12;100.00;101550.00;5009734;28;20056;-77
2022/11/14 09:06:27;;;;;;;47.10;30.83;;;;;;;6.13;100.00;101542.19;5009304;28;20262;-77
2022/11/14 09:09:14;;;;;;;45.92;30.63;;;;;;;6.16;100.00;101538.78;4995790;28;20030;-77
2022/11/14 09:12:01;;;;;;;47.30;30.45;;;;;;;6.18;100.00;101545.84;5018244;28;20044;-77
2022/11/14 09:14:48;;;;;;;49.40;30.83;;;;;;;6.18;100.00;101551.09;5018349;28;20042;-77
2022/11/14 09:17:35;;;;;;;46.28;30.48;;;;;;;6.18;100.00;101534.47;5017289;28;20561;-77
2022/11/14 09:20:25;;;;;;;53.25;34.75;;;;;;;6.19;100.00;101528.41;5013132;28;20523;-78
2022/11/14 09:23:19;;;;;;;49.38;32.72;;;;;;;6.20;100.00;101536.34;4993678;28;20186;-77
2022/11/14 09:26:17;;;;;;;36.58;24.90;;;;;;;6.24;100.00;101526.84;5015154;28;20045;-78
2022/11/14 09:29:05;;;;;;;51.67;31.48;;;;;;;6.32;100.00;101525.34;5008413;28;20522;-78
2022/11/14 09:31:53;;;;;;;45.13;29.20;;;;;;;6.38;100.00;101524.66;5014941;28;20042;-77
2022/11/14 09:34:43;;;;;;;45.42;30.95;;;;;;;6.44;100.00;101532.69;5016622;28;20419;-78
2022/11/14 09:37:30;;;;;;;51.35;30.98;;;;;;;6.44;100.00;101535.31;5015657;28;20038;-77
2022/11/14 09:40:17;;;;;;;48.50;31.00;;;;;;;6.49;100.00;101535.47;5001422;28;20038;-77
2022/11/14 09:43:22;;;;;;;50.25;33.00;;;;;;;6.51;100.00;101529.44;5008313;28;20414;-78
2022/11/14 09:46:24;;;;;;;46.20;30.42;;;;;;;6.55;100.00;101528.69;5010444;28;20041;-78
2022/11/14 09:49:18;;;;;;;48.42;31.83;;;;;;;6.60;100.00;101520.97;5018238;28;20044;-78
2022/11/14 09:52:30;;;;;;;47.38;32.05;;;;;;;6.66;100.00;101522.88;5017250;28;20053;-77
2022/11/14 09:55:22;;;;;;;52.50;31.38;;;;;;;6.70;100.00;101519.50;4981913;28;20374;-77
2022/11/14 09:58:17;;;;;;;49.90;32.53;;;;;;;6.72;100.00;101528.31;5008744;28;20418;-78
2022/11/14 10:01:35;;;;;;;56.63;36.65;;;;;;;6.77;100.00;101532.84;4999569;28;20459;-79
2022/11/14 10:04:47;;;;;;;53.55;33.72;;;;;;;6.85;100.00;101517.34;5007071;28;20274;-78
2022/11/14 10:07:36;;;;;;;44.45;29.88;;;;;;;6.90;100.00;101523.59;5019991;28;20285;-77
2022/11/14 10:10:35;;;;;;;44.65;29.02;;;;;;;6.93;100.00;101502.72;5004343;28;20558;-76
2022/11/14 10:13:28;;;;;;;;;;;;;;;6.95;100.00;101498.41;4997390;28;20136;-77
2022/11/14 10:16:28;;;;;;;33.50;22.45;;;;;;;6.94;100.00;101516.72;5024953;28;19921;-77
2022/11/14 10:19:41;;;;;;;42.97;27.27;;;;;;;6.96;100.00;101513.28;5009880;28;20321;-78
2022/11/14 10:22:31;;;;;;;40.33;28.55;;;;;;;6.95;100.00;101511.50;5007748;28;20037;-77
2022/11/14 10:25:41;;;;;;;44.30;29.23;;;;;;;6.92;100.00;101489.56;5012111;28;20037;-78
2022/11/14 10:28:59;;;;;;;41.75;28.13;;;;;;;6.94;100.00;101491.41;5023416;28;20037;-77
2022/11/14 10:32:15;;;;;;;45.72;26.98;;;;;;;6.99;100.00;101481.94;5014549;28;20496;-77
2022/11/14 10:35:17;;;;;;;43.80;28.23;;;;;;;7.07;100.00;101476.91;5015352;28;20042;-78
2022/11/14 10:38:20;;;;;;;41.03;27.77;;;;;;;7.20;100.00;101476.41;5018407;28;20034;-79
2022/11/14 10:41:08;;;;;;;45.72;28.75;;;;;;;7.37;100.00;101469.00;4993994;28;20052;-79
2022/11/14 10:44:19;;;;;;;40.60;27.98;;;;;;;7.51;100.00;101468.47;5012393;28;20404;-78
2022/11/14 10:47:13;;;;;;;44.05;26.38;;;;;;;7.65;100.00;101474.03;5017089;28;20340;-78
2022/11/14 10:50:13;;;;;;;37.50;26.00;;;;;;;7.77;100.00;101463.88;4995836;28;20045;-78
2022/11/14 10:53:09;;;;;;;36.67;25.75;;;;;;;7.81;100.00;101461.34;5015635;28;20041;-78
2022/11/14 10:55:57;;;;;;;38.42;25.30;;;;;;;7.84;100.00;101454.41;5017953;28;20045;-77
2022/11/14 10:58:51;;;;;;;42.38;26.30;;;;;;;7.87;100.00;101457.97;5013945;28;20396;-78
2022/11/14 11:01:41;;;;;;;34.63;24.65;;;;;;;7.87;100.00;101451.84;5021138;28;20068;-78
2022/11/14 11:04:29;;;;;;;39.15;26.33;;;;;;;7.88;100.00;101446.66;5021114;28;20279;-78
2022/11/14 11:13:51;;;;;;;33.58;23.55;;;;;;;7.95;100.00;101424.06;5006564;28;20049;-78
2022/11/14 11:16:38;;;;;;;35.70;24.42;;;;;;;8.02;100.00;101422.47;5010141;28;20037;-78
2022/11/14 11:19:29;;;;;;;36.47;25.25;;;;;;;8.04;100.00;101421.63;4992066;28;20045;-77
2022/11/14 11:22:37;;;;;;;35.83;26.35;;;;;;;8.04;100.00;101423.38;5022259;28;20048;-78
2022/11/14 11:25:27;;;;;;;35.67;25.10;;;;;;;8.03;100.00;101418.97;5009999;28;20326;-78
2022/11/14 11:28:21;;;;;;;38.38;24.83;;;;;;;8.06;100.00;101408.56;4993964;28;20033;-79
2022/11/14 11:31:10;;;;;;;39.42;26.63;;;;;;;8.10;100.00;101399.88;5015539;28;20050;-78
2022/11/14 11:34:02;;;;;;;33.85;24.48;;;;;;;8.13;100.00;101390.34;5028398;28;20041;-77
2022/11/14 11:36:58;;;;;;;42.28;28.08;;;;;;;8.15;100.00;101383.38;5011624;28;20034;-76
2022/11/14 11:39:53;;;;;;;38.55;25.00;;;;;;;8.18;100.00;101383.47;5012772;28;20057;-76
2022/11/14 11:42:49;;;;;;;42.08;27.20;;;;;;;8.23;100.00;101375.69;5011731;28;20037;-79
2022/11/14 11:46:01;;;;;;;36.50;26.40;;;;;;;8.29;100.00;101370.53;5017558;28;20490;-76
2022/11/14 11:48:54;;;;;;;36.80;26.48;;;;;;;8.35;100.00;101373.28;5021607;28;20045;-78
2022/11/14 11:51:44;;;;;;;41.17;26.38;;;;;;;8.32;100.00;101375.88;5024517;28;20511;-78
2022/11/14 11:54:55;;;;;;;41.35;25.83;;;;;;;8.22;100.00;101363.38;5016441;28;20602;-77
2022/11/14 11:57:46;;;;;;;38.13;24.75;;;;;;;8.20;100.00;101360.75;5016920;28;20050;-76
2022/11/14 12:00:34;;;;;;;38.70;26.25;;;;;;;8.20;100.00;101354.59;4979280;28;20572;-79
2022/11/14 12:03:24;;;;;;;39.35;26.67;;;;;;;8.20;100.00;101346.72;5016581;28;20447;-78
2022/11/14 12:06:16;;;;;;;38.25;24.75;;;;;;;8.22;100.00;101331.00;5007507;28;20045;-80
2022/11/14 12:09:13;;;;;;;37.65;25.92;;;;;;;8.19;100.00;101324.84;5024278;28;20029;-79
2022/11/14 12:12:05;;;;;;;37.33;25.35;;;;;;;8.20;100.00;101329.25;5023420;28;20052;-78
2022/11/14 12:15:11;;;;;;;38.42;25.40;;;;;;;8.17;100.00;101325.66;4986051;28;20041;-79
2022/11/14 12:18:11;;;;;;;38.25;24.23;;;;;;;8.16;100.00;101323.88;5027727;28;20049;-78
2022/11/14 12:21:26;;;;;;;36.47;25.52;;;;;;;8.16;100.00;101321.25;5037268;28;20049;-79
2022/11/14 12:24:58;;;;;;;37.47;25.23;;;;;;;8.17;100.00;101330.94;5013944;28;20038;-78
2022/11/14 12:27:59;;;;;;;34.58;23.85;;;;;;;8.22;100.00;101328.38;4998945;28;20049;-80
2022/11/14 12:30:52;;;;;;;35.92;23.65;;;;;;;8.27;100.00;101332.00;4988147;28;20399;-78
2022/11/14 12:33:56;;;;;;;30.10;22.52;;;;;;;8.29;100.00;101330.28;5006650;28;20049;-78
2022/11/14 12:36:44;;;;;;;32.20;21.48;;;;;;;8.32;100.00;101328.59;5020044;28;20633;-77
2022/11/14 12:39:32;;;;;;;36.22;23.13;;;;;;;8.38;100.00;101327.84;5010568;28;20038;-77
2022/11/14 12:42:20;;;;;;;31.77;22.30;;;;;;;8.45;100.00;101326.25;4995642;28;20042;-77
2022/11/14 12:45:39;;;;;;;35.47;24.05;;;;;;;8.52;100.00;101328.13;5024002;28;20038;-78
2022/11/14 12:48:25;;;;;;;32.28;22.60;;;;;;;8.54;100.00;101327.31;5032570;28;20034;-77
2022/11/14 12:51:26;;;;;;;32.38;22.23;;;;;;;8.57;100.00;101318.63;5018924;28;20407;-79
2022/11/14 12:54:45;;;;;;;31.27;21.33;;;;;;;8.55;100.00;101315.94;5014083;28;20042;-79
2022/11/14 12:57:46;;;;;;;30.20;19.80;;;;;;;8.55;100.00;101312.44;5024088;28;20396;-78
2022/11/14 13:01:02;;;;;;;30.92;21.30;;;;;;;8.55;100.00;101296.69;5007951;28;20045;-78